首页
METAR-TAF:

METAR-TAF

机场 :

马略卡岛帕尔马机场

帕爾馬, 西班牙

纬度: 39-33N, 经度: 002-44E, 海拔: 4米

当前天气观测

该预报发布于20分钟前的22:47 UTC
风速15节,风向北转西北,有时为28节阵风,在西北北转东北之间变化
温度 10°C
湿度 71%
气压 998 hPa
能见度10公里或以上
少量云层高于2000英尺
散云层高于3800英尺

METAR: LEPA 232247Z 34015G28KT 320V020 9999 RA FEW020 SCT038 10/05 Q0998 NOSIG

时间: 00:07 (23:07 UTC)

预报

该预报发布于17分钟前的22:50 UTC
预报有效从23日的 22点(UTC)到 24日的 18点(UTC)
风速18节,风向西北
能见度10公里或以上
散云层高于2000英尺
短暂存在
从 23日的 23点(UTC)到 24日的 03点(UTC)
能見度: 8000
短暂存在
从 23日的 22点(UTC)到 24日的 12点(UTC)
风速20节,风向西北,有时为34节阵风
成为
从 24日的 16点(UTC)到 24日的 18点(UTC)
风速5节,风向北转东北

TAF: LEPA 232250Z 2322/2418 32018KT 9999 SCT020 TX12/2414Z TN04/2406Z TEMPO 2323/2403 8000 RA TEMPO 2322/2412 32020G34KT BECMG 2416/2418 03005KT

超过4000个机场的气象观测和天气预报(METAR&TAF报告)。

可查询的气象台以黄色和红色小点在地图上表示。

将鼠标移到小点上方,可查看气象台名称。

然后点击查看天气观测和预报。

如需切换地图:点击带黑十字的绿色按钮放大地图;点击带横线的绿色按钮缩小地图;或者点击绿色箭头查看邻近地区的地图。


METAR-TAF: